sensor_id;sensor_type;location;lat;lon;timestamp;P1;durP1;ratioP1;P2;durP2;ratioP2
23119;SDS011;11729;50.836;4.330;2023-03-30T00:02:24;9.13;;;5.85;;
23119;SDS011;11729;50.836;4.330;2023-03-30T00:04:54;7.88;;;6.32;;
23119;SDS011;11729;50.836;4.330;2023-03-30T00:07:30;8.82;;;5.82;;
23119;SDS011;11729;50.836;4.330;2023-03-30T00:09:56;14.85;;;7.10;;
23119;SDS011;11729;50.836;4.330;2023-03-30T00:12:22;11.73;;;5.63;;
23119;SDS011;11729;50.836;4.330;2023-03-30T00:14:48;6.72;;;5.53;;
23119;SDS011;11729;50.836;4.330;2023-03-30T00:17:14;8.82;;;5.90;;
23119;SDS011;11729;50.836;4.330;2023-03-30T00:19:41;9.93;;;5.50;;
23119;SDS011;11729;50.836;4.330;2023-03-30T00:22:08;9.43;;;5.53;;
23119;SDS011;11729;50.836;4.330;2023-03-30T00:24:35;11.35;;;5.60;;
23119;SDS011;11729;50.836;4.330;2023-03-30T00:27:02;9.90;;;5.80;;
23119;SDS011;11729;50.836;4.330;2023-03-30T00:29:28;10.40;;;5.75;;
23119;SDS011;11729;50.836;4.330;2023-03-30T00:31:54;6.72;;;5.63;;
23119;SDS011;11729;50.836;4.330;2023-03-30T00:34:20;10.65;;;5.60;;
23119;SDS011;11729;50.836;4.330;2023-03-30T00:36:46;9.52;;;5.40;;
23119;SDS011;11729;50.836;4.330;2023-03-30T00:39:13;8.43;;;5.15;;
23119;SDS011;11729;50.836;4.330;2023-03-30T00:41:43;11.48;;;5.82;;
23119;SDS011;11729;50.836;4.330;2023-03-30T00:45:01;6.57;;;5.15;;
23119;SDS011;11729;50.836;4.330;2023-03-30T00:47:13;7.22;;;5.07;;
23119;SDS011;11729;50.836;4.330;2023-03-30T00:49:40;9.13;;;5.67;;
23119;SDS011;11729;50.836;4.330;2023-03-30T00:52:06;7.15;;;5.45;;
23119;SDS011;11729;50.836;4.330;2023-03-30T00:54:34;9.10;;;5.28;;
23119;SDS011;11729;50.836;4.330;2023-03-30T00:57:00;5.78;;;5.10;;
23119;SDS011;11729;50.836;4.330;2023-03-30T00:59:26;13.00;;;5.78;;
23119;SDS011;11729;50.836;4.330;2023-03-30T01:01:52;6.25;;;5.18;;
23119;SDS011;11729;50.836;4.330;2023-03-30T01:04:17;9.55;;;5.35;;
23119;SDS011;11729;50.836;4.330;2023-03-30T01:06:44;7.25;;;5.43;;
23119;SDS011;11729;50.836;4.330;2023-03-30T01:09:13;10.05;;;6.28;;
23119;SDS011;11729;50.836;4.330;2023-03-30T01:11:41;8.27;;;5.50;;
23119;SDS011;11729;50.836;4.330;2023-03-30T01:14:08;10.02;;;5.20;;
23119;SDS011;11729;50.836;4.330;2023-03-30T01:16:39;6.63;;;5.30;;
23119;SDS011;11729;50.836;4.330;2023-03-30T01:30:44;8.70;;;5.43;;
23119;SDS011;11729;50.836;4.330;2023-03-30T01:46:34;10.45;;;5.70;;
23119;SDS011;11729;50.836;4.330;2023-03-30T01:49:12;7.85;;;5.70;;
23119;SDS011;11729;50.836;4.330;2023-03-30T01:54:49;7.78;;;5.30;;
23119;SDS011;11729;50.836;4.330;2023-03-30T01:57:22;8.60;;;5.53;;
23119;SDS011;11729;50.836;4.330;2023-03-30T01:59:55;11.13;;;5.57;;
23119;SDS011;11729;50.836;4.330;2023-03-30T02:02:27;5.88;;;5.30;;
23119;SDS011;11729;50.836;4.330;2023-03-30T02:04:56;7.90;;;5.63;;
23119;SDS011;11729;50.836;4.330;2023-03-30T02:07:26;8.00;;;5.50;;
23119;SDS011;11729;50.836;4.330;2023-03-30T02:09:56;6.78;;;5.32;;
23119;SDS011;11729;50.836;4.330;2023-03-30T02:12:28;6.75;;;5.75;;
23119;SDS011;11729;50.836;4.330;2023-03-30T02:14:56;9.55;;;5.80;;
23119;SDS011;11729;50.836;4.330;2023-03-30T02:17:24;12.20;;;5.82;;
23119;SDS011;11729;50.836;4.330;2023-03-30T02:19:53;11.50;;;5.90;;
23119;SDS011;11729;50.836;4.330;2023-03-30T02:22:22;8.52;;;5.65;;
23119;SDS011;11729;50.836;4.330;2023-03-30T02:24:49;6.63;;;5.55;;
23119;SDS011;11729;50.836;4.330;2023-03-30T02:27:18;9.25;;;5.50;;
23119;SDS011;11729;50.836;4.330;2023-03-30T02:29:46;9.50;;;5.53;;
23119;SDS011;11729;50.836;4.330;2023-03-30T02:32:35;12.48;;;5.53;;
23119;SDS011;11729;50.836;4.330;2023-03-30T02:52:07;6.80;;;6.07;;
23119;SDS011;11729;50.836;4.330;2023-03-30T03:00:10;7.10;;;5.57;;
23119;SDS011;11729;50.836;4.330;2023-03-30T03:02:42;7.25;;;5.43;;
23119;SDS011;11729;50.836;4.330;2023-03-30T03:05:15;9.05;;;5.80;;
23119;SDS011;11729;50.836;4.330;2023-03-30T03:07:41;8.00;;;5.60;;
23119;SDS011;11729;50.836;4.330;2023-03-30T03:10:09;11.30;;;5.43;;
23119;SDS011;11729;50.836;4.330;2023-03-30T03:12:35;10.93;;;5.40;;
23119;SDS011;11729;50.836;4.330;2023-03-30T03:15:01;9.90;;;5.93;;
23119;SDS011;11729;50.836;4.330;2023-03-30T03:17:28;7.18;;;5.15;;
23119;SDS011;11729;50.836;4.330;2023-03-30T03:20:01;9.55;;;6.05;;
23119;SDS011;11729;50.836;4.330;2023-03-30T03:22:28;10.15;;;5.40;;
23119;SDS011;11729;50.836;4.330;2023-03-30T03:24:55;6.55;;;5.40;;
23119;SDS011;11729;50.836;4.330;2023-03-30T03:27:21;8.65;;;5.70;;
23119;SDS011;11729;50.836;4.330;2023-03-30T03:29:48;9.18;;;5.55;;
23119;SDS011;11729;50.836;4.330;2023-03-30T03:32:14;9.63;;;5.90;;
23119;SDS011;11729;50.836;4.330;2023-03-30T03:34:40;11.90;;;5.72;;
23119;SDS011;11729;50.836;4.330;2023-03-30T03:37:09;9.25;;;5.65;;
23119;SDS011;11729;50.836;4.330;2023-03-30T03:39:36;6.30;;;5.60;;
23119;SDS011;11729;50.836;4.330;2023-03-30T03:42:02;8.65;;;5.55;;
23119;SDS011;11729;50.836;4.330;2023-03-30T03:44:29;8.75;;;5.60;;
23119;SDS011;11729;50.836;4.330;2023-03-30T03:46:54;9.13;;;5.68;;
23119;SDS011;11729;50.836;4.330;2023-03-30T03:49:20;7.72;;;5.57;;
23119;SDS011;11729;50.836;4.330;2023-03-30T03:51:46;9.90;;;5.40;;
23119;SDS011;11729;50.836;4.330;2023-03-30T03:54:12;6.57;;;5.30;;
23119;SDS011;11729;50.836;4.330;2023-03-30T03:56:37;6.70;;;5.30;;
23119;SDS011;11729;50.836;4.330;2023-03-30T03:59:03;7.45;;;5.35;;
23119;SDS011;11729;50.836;4.330;2023-03-30T04:01:29;8.10;;;5.60;;
23119;SDS011;11729;50.836;4.330;2023-03-30T04:03:56;8.90;;;5.78;;
23119;SDS011;11729;50.836;4.330;2023-03-30T04:06:22;8.25;;;6.20;;
23119;SDS011;11729;50.836;4.330;2023-03-30T04:08:48;6.13;;;5.53;;
23119;SDS011;11729;50.836;4.330;2023-03-30T04:11:14;5.85;;;5.30;;
23119;SDS011;11729;50.836;4.330;2023-03-30T04:13:40;10.15;;;5.47;;
23119;SDS011;11729;50.836;4.330;2023-03-30T04:16:06;6.93;;;5.32;;
23119;SDS011;11729;50.836;4.330;2023-03-30T04:18:33;7.32;;;5.65;;
23119;SDS011;11729;50.836;4.330;2023-03-30T04:21:00;6.00;;;5.40;;
23119;SDS011;11729;50.836;4.330;2023-03-30T04:23:27;8.57;;;5.78;;
23119;SDS011;11729;50.836;4.330;2023-03-30T04:25:58;9.15;;;5.65;;
23119;SDS011;11729;50.836;4.330;2023-03-30T04:28:28;6.28;;;5.55;;
23119;SDS011;11729;50.836;4.330;2023-03-30T04:30:56;6.63;;;5.78;;
23119;SDS011;11729;50.836;4.330;2023-03-30T04:33:23;16.88;;;6.10;;
23119;SDS011;11729;50.836;4.330;2023-03-30T04:35:50;8.60;;;5.82;;
23119;SDS011;11729;50.836;4.330;2023-03-30T04:38:16;7.38;;;5.53;;
23119;SDS011;11729;50.836;4.330;2023-03-30T04:40:46;10.10;;;6.15;;
23119;SDS011;11729;50.836;4.330;2023-03-30T04:43:19;8.43;;;5.70;;
23119;SDS011;11729;50.836;4.330;2023-03-30T04:45:53;6.30;;;5.43;;
23119;SDS011;11729;50.836;4.330;2023-03-30T04:48:20;10.20;;;6.32;;
23119;SDS011;11729;50.836;4.330;2023-03-30T04:50:48;7.67;;;6.47;;
23119;SDS011;11729;50.836;4.330;2023-03-30T04:53:15;6.20;;;5.60;;
23119;SDS011;11729;50.836;4.330;2023-03-30T04:55:46;8.03;;;5.63;;
23119;SDS011;11729;50.836;4.330;2023-03-30T04:58:12;10.30;;;5.43;;
23119;SDS011;11729;50.836;4.330;2023-03-30T05:00:38;6.85;;;5.47;;
23119;SDS011;11729;50.836;4.330;2023-03-30T05:03:04;8.02;;;5.30;;
23119;SDS011;11729;50.836;4.330;2023-03-30T05:05:30;8.55;;;5.50;;
23119;SDS011;11729;50.836;4.330;2023-03-30T05:07:57;6.57;;;5.05;;
23119;SDS011;11729;50.836;4.330;2023-03-30T05:10:23;6.90;;;5.20;;
23119;SDS011;11729;50.836;4.330;2023-03-30T05:12:48;9.93;;;5.18;;
23119;SDS011;11729;50.836;4.330;2023-03-30T05:15:14;8.40;;;5.00;;
23119;SDS011;11729;50.836;4.330;2023-03-30T05:17:40;5.65;;;5.05;;
23119;SDS011;11729;50.836;4.330;2023-03-30T05:20:07;6.90;;;5.30;;
23119;SDS011;11729;50.836;4.330;2023-03-30T05:22:34;7.75;;;5.63;;
23119;SDS011;11729;50.836;4.330;2023-03-30T05:25:00;7.95;;;5.40;;
23119;SDS011;11729;50.836;4.330;2023-03-30T05:27:27;7.30;;;5.30;;
23119;SDS011;11729;50.836;4.330;2023-03-30T05:29:53;9.98;;;5.47;;
23119;SDS011;11729;50.836;4.330;2023-03-30T05:32:19;7.85;;;5.10;;
23119;SDS011;11729;50.836;4.330;2023-03-30T05:34:45;6.90;;;5.05;;
23119;SDS011;11729;50.836;4.330;2023-03-30T05:37:12;8.02;;;5.57;;
23119;SDS011;11729;50.836;4.330;2023-03-30T05:39:38;9.15;;;5.47;;
23119;SDS011;11729;50.836;4.330;2023-03-30T05:42:04;9.02;;;5.72;;
23119;SDS011;11729;50.836;4.330;2023-03-30T05:44:31;9.00;;;6.00;;
23119;SDS011;11729;50.836;4.330;2023-03-30T05:46:58;11.75;;;6.40;;
23119;SDS011;11729;50.836;4.330;2023-03-30T05:49:24;18.23;;;7.90;;
23119;SDS011;11729;50.836;4.330;2023-03-30T05:51:49;11.80;;;6.20;;
23119;SDS011;11729;50.836;4.330;2023-03-30T05:54:16;12.40;;;6.72;;
23119;SDS011;11729;50.836;4.330;2023-03-30T05:56:41;6.95;;;5.63;;
23119;SDS011;11729;50.836;4.330;2023-03-30T05:59:08;14.73;;;5.50;;
23119;SDS011;11729;50.836;4.330;2023-03-30T06:01:34;13.98;;;5.78;;
23119;SDS011;11729;50.836;4.330;2023-03-30T06:04:00;9.07;;;6.00;;
23119;SDS011;11729;50.836;4.330;2023-03-30T06:06:27;10.68;;;6.03;;
23119;SDS011;11729;50.836;4.330;2023-03-30T06:08:52;9.48;;;5.72;;
23119;SDS011;11729;50.836;4.330;2023-03-30T06:11:18;11.27;;;6.00;;
23119;SDS011;11729;50.836;4.330;2023-03-30T06:13:44;9.88;;;5.53;;
23119;SDS011;11729;50.836;4.330;2023-03-30T06:16:10;8.32;;;5.53;;
23119;SDS011;11729;50.836;4.330;2023-03-30T06:18:36;13.15;;;6.35;;
23119;SDS011;11729;50.836;4.330;2023-03-30T06:21:03;11.63;;;5.88;;
23119;SDS011;11729;50.836;4.330;2023-03-30T06:23:32;12.93;;;5.93;;
23119;SDS011;11729;50.836;4.330;2023-03-30T06:25:59;13.02;;;6.38;;
23119;SDS011;11729;50.836;4.330;2023-03-30T06:28:25;17.65;;;6.28;;
23119;SDS011;11729;50.836;4.330;2023-03-30T06:30:51;13.32;;;6.13;;
23119;SDS011;11729;50.836;4.330;2023-03-30T06:33:17;14.77;;;6.45;;
23119;SDS011;11729;50.836;4.330;2023-03-30T06:35:44;14.68;;;7.43;;
23119;SDS011;11729;50.836;4.330;2023-03-30T06:38:14;19.60;;;9.63;;
23119;SDS011;11729;50.836;4.330;2023-03-30T06:40:41;14.75;;;6.40;;
23119;SDS011;11729;50.836;4.330;2023-03-30T06:43:07;16.40;;;6.65;;
23119;SDS011;11729;50.836;4.330;2023-03-30T06:45:39;22.98;;;6.80;;
23119;SDS011;11729;50.836;4.330;2023-03-30T06:48:04;11.65;;;6.22;;
23119;SDS011;11729;50.836;4.330;2023-03-30T06:50:31;17.40;;;6.13;;
23119;SDS011;11729;50.836;4.330;2023-03-30T06:52:56;20.63;;;6.72;;
23119;SDS011;11729;50.836;4.330;2023-03-30T06:55:22;14.48;;;6.28;;
23119;SDS011;11729;50.836;4.330;2023-03-30T06:57:48;15.15;;;6.18;;
23119;SDS011;11729;50.836;4.330;2023-03-30T07:00:13;13.63;;;6.40;;
23119;SDS011;11729;50.836;4.330;2023-03-30T07:02:39;14.57;;;6.60;;
23119;SDS011;11729;50.836;4.330;2023-03-30T07:05:06;13.75;;;6.18;;
23119;SDS011;11729;50.836;4.330;2023-03-30T07:07:32;16.50;;;6.15;;
23119;SDS011;11729;50.836;4.330;2023-03-30T07:09:59;16.02;;;6.53;;
23119;SDS011;11729;50.836;4.330;2023-03-30T07:12:25;14.65;;;5.95;;
23119;SDS011;11729;50.836;4.330;2023-03-30T07:14:50;12.00;;;6.22;;
23119;SDS011;11729;50.836;4.330;2023-03-30T07:17:16;12.57;;;6.40;;
23119;SDS011;11729;50.836;4.330;2023-03-30T07:19:41;10.68;;;5.97;;
23119;SDS011;11729;50.836;4.330;2023-03-30T07:22:07;14.82;;;6.35;;
23119;SDS011;11729;50.836;4.330;2023-03-30T07:24:33;11.82;;;5.60;;
23119;SDS011;11729;50.836;4.330;2023-03-30T07:26:59;9.55;;;5.47;;
23119;SDS011;11729;50.836;4.330;2023-03-30T07:29:25;13.25;;;5.68;;
23119;SDS011;11729;50.836;4.330;2023-03-30T07:31:52;17.50;;;6.13;;
23119;SDS011;11729;50.836;4.330;2023-03-30T07:34:20;17.60;;;8.07;;
23119;SDS011;11729;50.836;4.330;2023-03-30T07:36:46;18.58;;;7.43;;
23119;SDS011;11729;50.836;4.330;2023-03-30T07:39:13;12.30;;;6.68;;
23119;SDS011;11729;50.836;4.330;2023-03-30T07:41:38;16.05;;;6.97;;
23119;SDS011;11729;50.836;4.330;2023-03-30T07:44:04;14.02;;;6.43;;
23119;SDS011;11729;50.836;4.330;2023-03-30T07:46:30;16.42;;;6.80;;
23119;SDS011;11729;50.836;4.330;2023-03-30T07:48:55;16.00;;;6.22;;
23119;SDS011;11729;50.836;4.330;2023-03-30T07:51:21;18.48;;;7.20;;
23119;SDS011;11729;50.836;4.330;2023-03-30T07:53:48;10.75;;;6.45;;
23119;SDS011;11729;50.836;4.330;2023-03-30T07:56:13;13.48;;;6.32;;
23119;SDS011;11729;50.836;4.330;2023-03-30T07:58:40;12.32;;;6.45;;
23119;SDS011;11729;50.836;4.330;2023-03-30T08:01:06;16.48;;;6.65;;
23119;SDS011;11729;50.836;4.330;2023-03-30T08:03:32;15.10;;;6.30;;
23119;SDS011;11729;50.836;4.330;2023-03-30T08:05:58;12.88;;;6.32;;
23119;SDS011;11729;50.836;4.330;2023-03-30T08:08:28;18.58;;;6.90;;
23119;SDS011;11729;50.836;4.330;2023-03-30T08:10:55;15.90;;;6.70;;
23119;SDS011;11729;50.836;4.330;2023-03-30T08:13:20;16.67;;;6.55;;
23119;SDS011;11729;50.836;4.330;2023-03-30T08:15:47;16.17;;;6.70;;
23119;SDS011;11729;50.836;4.330;2023-03-30T08:18:14;16.88;;;7.25;;
23119;SDS011;11729;50.836;4.330;2023-03-30T08:20:41;18.52;;;7.07;;
23119;SDS011;11729;50.836;4.330;2023-03-30T08:23:07;12.25;;;6.50;;
23119;SDS011;11729;50.836;4.330;2023-03-30T08:25:35;15.97;;;6.37;;
23119;SDS011;11729;50.836;4.330;2023-03-30T08:28:01;9.20;;;5.57;;
23119;SDS011;11729;50.836;4.330;2023-03-30T08:30:29;8.75;;;6.00;;
23119;SDS011;11729;50.836;4.330;2023-03-30T08:32:55;7.85;;;5.30;;
23119;SDS011;11729;50.836;4.330;2023-03-30T08:35:22;11.48;;;5.78;;
23119;SDS011;11729;50.836;4.330;2023-03-30T08:37:48;12.98;;;5.53;;
23119;SDS011;11729;50.836;4.330;2023-03-30T08:40:14;9.55;;;5.50;;
23119;SDS011;11729;50.836;4.330;2023-03-30T08:45:38;14.13;;;5.93;;
23119;SDS011;11729;50.836;4.330;2023-03-30T08:48:06;12.45;;;6.13;;
23119;SDS011;11729;50.836;4.330;2023-03-30T08:50:40;12.68;;;6.00;;
23119;SDS011;11729;50.836;4.330;2023-03-30T08:53:10;12.90;;;5.80;;
23119;SDS011;11729;50.836;4.330;2023-03-30T08:55:48;16.42;;;6.50;;
23119;SDS011;11729;50.836;4.330;2023-03-30T08:58:25;14.30;;;6.78;;
23119;SDS011;11729;50.836;4.330;2023-03-30T09:06:30;18.92;;;6.38;;
23119;SDS011;11729;50.836;4.330;2023-03-30T09:09:13;14.65;;;6.13;;
23119;SDS011;11729;50.836;4.330;2023-03-30T09:11:42;15.38;;;6.03;;
23119;SDS011;11729;50.836;4.330;2023-03-30T09:14:11;15.23;;;6.13;;
23119;SDS011;11729;50.836;4.330;2023-03-30T09:17:18;15.23;;;6.22;;
23119;SDS011;11729;50.836;4.330;2023-03-30T09:22:42;15.63;;;7.57;;
23119;SDS011;11729;50.836;4.330;2023-03-30T09:30:34;17.17;;;6.60;;
23119;SDS011;11729;50.836;4.330;2023-03-30T09:33:13;14.20;;;6.57;;
23119;SDS011;11729;50.836;4.330;2023-03-30T09:35:55;18.05;;;6.93;;
23119;SDS011;11729;50.836;4.330;2023-03-30T09:38:22;15.40;;;7.00;;
23119;SDS011;11729;50.836;4.330;2023-03-30T09:40:59;12.65;;;7.03;;
23119;SDS011;11729;50.836;4.330;2023-03-30T09:43:39;15.85;;;6.80;;
23119;SDS011;11729;50.836;4.330;2023-03-30T09:46:08;15.23;;;7.10;;
23119;SDS011;11729;50.836;4.330;2023-03-30T09:48:39;16.13;;;7.28;;
23119;SDS011;11729;50.836;4.330;2023-03-30T09:51:29;20.17;;;6.80;;
23119;SDS011;11729;50.836;4.330;2023-03-30T09:53:59;18.20;;;6.65;;
23119;SDS011;11729;50.836;4.330;2023-03-30T09:58:59;16.27;;;6.90;;
23119;SDS011;11729;50.836;4.330;2023-03-30T10:02:07;20.27;;;6.65;;
23119;SDS011;11729;50.836;4.330;2023-03-30T10:04:56;19.52;;;7.22;;
23119;SDS011;11729;50.836;4.330;2023-03-30T10:07:30;14.43;;;6.40;;
23119;SDS011;11729;50.836;4.330;2023-03-30T10:12:47;14.00;;;6.00;;
23119;SDS011;11729;50.836;4.330;2023-03-30T10:15:14;14.32;;;5.93;;
23119;SDS011;11729;50.836;4.330;2023-03-30T10:17:46;11.20;;;6.03;;
23119;SDS011;11729;50.836;4.330;2023-03-30T10:22:53;11.27;;;6.40;;
23119;SDS011;11729;50.836;4.330;2023-03-30T10:25:39;10.45;;;6.35;;
23119;SDS011;11729;50.836;4.330;2023-03-30T10:28:13;9.30;;;6.15;;
23119;SDS011;11729;50.836;4.330;2023-03-30T10:30:53;11.57;;;6.05;;
23119;SDS011;11729;50.836;4.330;2023-03-30T10:33:21;15.30;;;6.53;;
23119;SDS011;11729;50.836;4.330;2023-03-30T10:35:49;9.98;;;6.00;;
23119;SDS011;11729;50.836;4.330;2023-03-30T10:38:17;15.10;;;6.57;;
23119;SDS011;11729;50.836;4.330;2023-03-30T10:40:44;20.50;;;7.30;;
23119;SDS011;11729;50.836;4.330;2023-03-30T10:43:19;17.10;;;6.90;;
23119;SDS011;11729;50.836;4.330;2023-03-30T10:45:49;15.48;;;7.10;;
23119;SDS011;11729;50.836;4.330;2023-03-30T10:56:15;15.82;;;7.25;;
23119;SDS011;11729;50.836;4.330;2023-03-30T11:04:22;17.77;;;7.18;;
23119;SDS011;11729;50.836;4.330;2023-03-30T11:07:02;15.70;;;6.50;;
23119;SDS011;11729;50.836;4.330;2023-03-30T11:09:33;20.10;;;6.53;;
23119;SDS011;11729;50.836;4.330;2023-03-30T11:12:04;15.15;;;6.28;;
23119;SDS011;11729;50.836;4.330;2023-03-30T11:14:45;15.55;;;6.47;;
23119;SDS011;11729;50.836;4.330;2023-03-30T11:18:16;21.75;;;7.25;;
23119;SDS011;11729;50.836;4.330;2023-03-30T11:20:26;19.42;;;7.15;;
23119;SDS011;11729;50.836;4.330;2023-03-30T11:23:19;21.98;;;7.15;;
23119;SDS011;11729;50.836;4.330;2023-03-30T11:26:04;17.80;;;6.35;;
23119;SDS011;11729;50.836;4.330;2023-03-30T11:40:45;13.63;;;6.03;;
23119;SDS011;11729;50.836;4.330;2023-03-30T11:43:16;15.85;;;7.00;;
23119;SDS011;11729;50.836;4.330;2023-03-30T11:56:31;17.15;;;6.25;;
23119;SDS011;11729;50.836;4.330;2023-03-30T12:04:49;18.15;;;7.35;;
23119;SDS011;11729;50.836;4.330;2023-03-30T12:07:30;19.17;;;7.05;;
23119;SDS011;11729;50.836;4.330;2023-03-30T12:12:57;17.48;;;6.20;;
23119;SDS011;11729;50.836;4.330;2023-03-30T12:17:55;19.27;;;6.93;;
23119;SDS011;11729;50.836;4.330;2023-03-30T12:23:18;21.80;;;7.90;;
23119;SDS011;11729;50.836;4.330;2023-03-30T12:26:05;19.00;;;7.03;;
23119;SDS011;11729;50.836;4.330;2023-03-30T12:31:11;15.68;;;6.47;;
23119;SDS011;11729;50.836;4.330;2023-03-30T12:38:50;20.50;;;6.70;;
23119;SDS011;11729;50.836;4.330;2023-03-30T12:41:17;15.57;;;6.53;;
23119;SDS011;11729;50.836;4.330;2023-03-30T12:44:27;18.98;;;6.68;;
23119;SDS011;11729;50.836;4.330;2023-03-30T12:49:55;11.55;;;6.05;;
23119;SDS011;11729;50.836;4.330;2023-03-30T12:57:50;17.60;;;6.10;;
23119;SDS011;11729;50.836;4.330;2023-03-30T13:01:16;15.30;;;6.22;;
23119;SDS011;11729;50.836;4.330;2023-03-30T13:03:33;17.48;;;6.68;;
23119;SDS011;11729;50.836;4.330;2023-03-30T13:06:00;21.80;;;6.78;;
23119;SDS011;11729;50.836;4.330;2023-03-30T13:11:21;18.08;;;7.00;;
23119;SDS011;11729;50.836;4.330;2023-03-30T13:13:52;24.25;;;7.45;;
23119;SDS011;11729;50.836;4.330;2023-03-30T13:24:51;15.50;;;6.55;;
23119;SDS011;11729;50.836;4.330;2023-03-30T13:29:51;16.40;;;7.20;;
23119;SDS011;11729;50.836;4.330;2023-03-30T13:32:30;18.20;;;7.00;;
23119;SDS011;11729;50.836;4.330;2023-03-30T13:41:02;15.20;;;7.18;;
23119;SDS011;11729;50.836;4.330;2023-03-30T13:46:19;18.48;;;6.57;;
23119;SDS011;11729;50.836;4.330;2023-03-30T13:51:18;15.25;;;6.93;;
23119;SDS011;11729;50.836;4.330;2023-03-30T13:53:51;19.48;;;6.78;;
23119;SDS011;11729;50.836;4.330;2023-03-30T13:56:20;17.40;;;7.00;;
23119;SDS011;11729;50.836;4.330;2023-03-30T13:59:02;20.00;;;6.85;;
23119;SDS011;11729;50.836;4.330;2023-03-30T14:01:34;19.30;;;6.28;;
23119;SDS011;11729;50.836;4.330;2023-03-30T14:04:00;14.82;;;6.72;;
23119;SDS011;11729;50.836;4.330;2023-03-30T14:06:31;24.17;;;7.10;;
23119;SDS011;11729;50.836;4.330;2023-03-30T14:11:35;20.30;;;7.43;;
23119;SDS011;11729;50.836;4.330;2023-03-30T14:14:16;12.60;;;6.55;;
23119;SDS011;11729;50.836;4.330;2023-03-30T14:16:47;14.40;;;6.63;;
23119;SDS011;11729;50.836;4.330;2023-03-30T14:19:22;10.97;;;5.53;;
23119;SDS011;11729;50.836;4.330;2023-03-30T14:22:00;15.00;;;6.32;;
23119;SDS011;11729;50.836;4.330;2023-03-30T14:24:28;15.30;;;6.22;;
23119;SDS011;11729;50.836;4.330;2023-03-30T14:27:30;11.60;;;6.15;;
23119;SDS011;11729;50.836;4.330;2023-03-30T14:29:49;16.58;;;6.00;;
23119;SDS011;11729;50.836;4.330;2023-03-30T14:32:16;12.05;;;5.70;;
23119;SDS011;11729;50.836;4.330;2023-03-30T14:34:49;12.98;;;6.28;;
23119;SDS011;11729;50.836;4.330;2023-03-30T14:37:17;13.25;;;6.45;;
23119;SDS011;11729;50.836;4.330;2023-03-30T14:39:45;14.57;;;6.43;;
23119;SDS011;11729;50.836;4.330;2023-03-30T14:44:40;11.77;;;5.63;;
23119;SDS011;11729;50.836;4.330;2023-03-30T14:47:07;12.57;;;5.97;;
23119;SDS011;11729;50.836;4.330;2023-03-30T14:49:33;15.02;;;7.20;;
23119;SDS011;11729;50.836;4.330;2023-03-30T14:54:28;12.90;;;6.90;;
23119;SDS011;11729;50.836;4.330;2023-03-30T14:56:58;14.35;;;7.53;;
23119;SDS011;11729;50.836;4.330;2023-03-30T14:59:26;22.13;;;9.63;;
23119;SDS011;11729;50.836;4.330;2023-03-30T15:01:53;16.75;;;6.57;;
23119;SDS011;11729;50.836;4.330;2023-03-30T15:04:21;9.70;;;6.53;;
23119;SDS011;11729;50.836;4.330;2023-03-30T15:06:51;13.82;;;6.20;;
23119;SDS011;11729;50.836;4.330;2023-03-30T15:09:18;13.77;;;7.50;;
23119;SDS011;11729;50.836;4.330;2023-03-30T15:11:49;12.38;;;6.53;;
23119;SDS011;11729;50.836;4.330;2023-03-30T15:14:19;13.77;;;6.38;;
23119;SDS011;11729;50.836;4.330;2023-03-30T15:16:47;14.07;;;5.93;;
23119;SDS011;11729;50.836;4.330;2023-03-30T15:21:53;9.48;;;5.40;;
23119;SDS011;11729;50.836;4.330;2023-03-30T15:24:24;11.85;;;5.70;;
23119;SDS011;11729;50.836;4.330;2023-03-30T15:26:54;9.25;;;5.32;;
23119;SDS011;11729;50.836;4.330;2023-03-30T15:29:22;8.88;;;5.53;;
23119;SDS011;11729;50.836;4.330;2023-03-30T15:32:03;6.90;;;5.65;;
23119;SDS011;11729;50.836;4.330;2023-03-30T15:34:30;9.25;;;5.97;;
23119;SDS011;11729;50.836;4.330;2023-03-30T15:36:56;12.90;;;6.22;;
23119;SDS011;11729;50.836;4.330;2023-03-30T15:39:24;12.68;;;6.65;;
23119;SDS011;11729;50.836;4.330;2023-03-30T15:42:04;17.83;;;10.85;;
23119;SDS011;11729;50.836;4.330;2023-03-30T15:44:37;13.88;;;7.22;;
23119;SDS011;11729;50.836;4.330;2023-03-30T15:47:13;14.68;;;7.07;;
23119;SDS011;11729;50.836;4.330;2023-03-30T15:49:44;14.35;;;6.57;;
23119;SDS011;11729;50.836;4.330;2023-03-30T15:52:17;8.82;;;5.93;;
23119;SDS011;11729;50.836;4.330;2023-03-30T15:54:52;13.02;;;6.70;;
23119;SDS011;11729;50.836;4.330;2023-03-30T15:59:53;11.98;;;6.35;;
23119;SDS011;11729;50.836;4.330;2023-03-30T16:04:56;11.13;;;6.25;;
23119;SDS011;11729;50.836;4.330;2023-03-30T16:07:25;8.75;;;5.75;;
23119;SDS011;11729;50.836;4.330;2023-03-30T16:09:51;10.02;;;5.50;;
23119;SDS011;11729;50.836;4.330;2023-03-30T16:12:18;12.15;;;5.75;;
23119;SDS011;11729;50.836;4.330;2023-03-30T16:14:47;12.25;;;9.02;;
23119;SDS011;11729;50.836;4.330;2023-03-30T16:17:14;9.10;;;5.63;;
23119;SDS011;11729;50.836;4.330;2023-03-30T16:19:40;9.13;;;5.50;;
23119;SDS011;11729;50.836;4.330;2023-03-30T16:22:07;9.90;;;5.72;;
23119;SDS011;11729;50.836;4.330;2023-03-30T16:24:33;6.82;;;5.00;;
23119;SDS011;11729;50.836;4.330;2023-03-30T16:27:00;7.20;;;4.93;;
23119;SDS011;11729;50.836;4.330;2023-03-30T16:29:25;7.78;;;5.53;;
23119;SDS011;11729;50.836;4.330;2023-03-30T16:31:51;10.63;;;6.03;;
23119;SDS011;11729;50.836;4.330;2023-03-30T16:34:18;8.15;;;5.32;;
23119;SDS011;11729;50.836;4.330;2023-03-30T16:36:45;7.85;;;6.20;;
23119;SDS011;11729;50.836;4.330;2023-03-30T16:39:18;9.38;;;6.30;;
23119;SDS011;11729;50.836;4.330;2023-03-30T16:41:44;7.07;;;5.20;;
23119;SDS011;11729;50.836;4.330;2023-03-30T16:44:11;8.95;;;5.30;;
23119;SDS011;11729;50.836;4.330;2023-03-30T16:46:36;9.32;;;5.55;;
23119;SDS011;11729;50.836;4.330;2023-03-30T16:49:02;14.50;;;5.97;;
23119;SDS011;11729;50.836;4.330;2023-03-30T16:51:28;9.98;;;5.65;;
23119;SDS011;11729;50.836;4.330;2023-03-30T16:53:53;8.25;;;5.80;;
23119;SDS011;11729;50.836;4.330;2023-03-30T16:56:20;18.20;;;10.43;;
23119;SDS011;11729;50.836;4.330;2023-03-30T16:58:46;17.60;;;8.05;;
23119;SDS011;11729;50.836;4.330;2023-03-30T17:01:12;10.20;;;6.47;;
23119;SDS011;11729;50.836;4.330;2023-03-30T17:03:42;11.60;;;6.35;;
23119;SDS011;11729;50.836;4.330;2023-03-30T17:06:08;12.55;;;7.13;;
23119;SDS011;11729;50.836;4.330;2023-03-30T17:08:43;18.15;;;7.70;;
23119;SDS011;11729;50.836;4.330;2023-03-30T17:11:09;14.00;;;6.45;;
23119;SDS011;11729;50.836;4.330;2023-03-30T17:13:37;10.77;;;5.80;;
23119;SDS011;11729;50.836;4.330;2023-03-30T17:16:03;13.27;;;6.20;;
23119;SDS011;11729;50.836;4.330;2023-03-30T17:18:28;13.05;;;6.40;;
23119;SDS011;11729;50.836;4.330;2023-03-30T17:20:55;12.90;;;6.40;;
23119;SDS011;11729;50.836;4.330;2023-03-30T17:23:24;12.00;;;6.00;;
23119;SDS011;11729;50.836;4.330;2023-03-30T17:25:52;11.55;;;6.00;;
23119;SDS011;11729;50.836;4.330;2023-03-30T17:28:22;13.35;;;6.22;;
23119;SDS011;11729;50.836;4.330;2023-03-30T17:30:53;11.88;;;5.93;;
23119;SDS011;11729;50.836;4.330;2023-03-30T17:35:47;15.63;;;8.60;;
23119;SDS011;11729;50.836;4.330;2023-03-30T17:38:17;15.90;;;7.65;;
23119;SDS011;11729;50.836;4.330;2023-03-30T17:40:42;16.25;;;6.28;;
23119;SDS011;11729;50.836;4.330;2023-03-30T17:43:09;11.63;;;6.55;;
23119;SDS011;11729;50.836;4.330;2023-03-30T17:45:35;12.55;;;6.53;;
23119;SDS011;11729;50.836;4.330;2023-03-30T17:48:03;13.50;;;6.57;;
23119;SDS011;11729;50.836;4.330;2023-03-30T17:50:31;15.07;;;7.03;;
23119;SDS011;11729;50.836;4.330;2023-03-30T17:53:01;14.00;;;6.55;;
23119;SDS011;11729;50.836;4.330;2023-03-30T17:55:29;13.82;;;6.57;;
23119;SDS011;11729;50.836;4.330;2023-03-30T17:57:56;10.40;;;6.22;;